sensor_id;sensor_type;location;lat;lon;timestamp;pressure;altitude;pressure_sealevel;temperature;humidity
30554;BME280;17335;50.720;7.452;2023-06-19T00:01:37;98660.22;;;20.32;100.00
30554;BME280;17335;50.720;7.452;2023-06-19T00:04:03;98662.34;;;20.30;100.00
30554;BME280;17335;50.720;7.452;2023-06-19T00:06:30;98671.25;;;20.18;100.00
30554;BME280;17335;50.720;7.452;2023-06-19T00:08:57;98664.34;;;20.16;100.00
30554;BME280;17335;50.720;7.452;2023-06-19T00:11:24;98659.56;;;20.11;100.00
30554;BME280;17335;50.720;7.452;2023-06-19T00:13:50;98652.91;;;20.07;100.00
30554;BME280;17335;50.720;7.452;2023-06-19T00:16:17;98651.69;;;20.03;100.00
30554;BME280;17335;50.720;7.452;2023-06-19T00:18:45;98654.66;;;20.01;100.00
30554;BME280;17335;50.720;7.452;2023-06-19T00:21:11;98655.91;;;19.99;100.00
30554;BME280;17335;50.720;7.452;2023-06-19T00:23:38;98660.09;;;20.01;100.00
30554;BME280;17335;50.720;7.452;2023-06-19T00:26:04;98658.19;;;20.02;100.00
30554;BME280;17335;50.720;7.452;2023-06-19T00:28:31;98655.84;;;20.05;100.00
30554;BME280;17335;50.720;7.452;2023-06-19T00:30:57;98653.34;;;20.04;100.00
30554;BME280;17335;50.720;7.452;2023-06-19T00:33:24;98656.69;;;20.06;100.00
30554;BME280;17335;50.720;7.452;2023-06-19T00:35:51;98662.59;;;20.03;100.00
30554;BME280;17335;50.720;7.452;2023-06-19T00:38:18;98654.81;;;20.07;100.00
30554;BME280;17335;50.720;7.452;2023-06-19T00:40:44;98670.47;;;20.11;100.00
30554;BME280;17335;50.720;7.452;2023-06-19T00:43:11;98670.38;;;19.99;100.00
30554;BME280;17335;50.720;7.452;2023-06-19T00:45:38;98678.47;;;20.06;100.00
30554;BME280;17335;50.720;7.452;2023-06-19T00:48:05;98683.59;;;19.96;100.00
30554;BME280;17335;50.720;7.452;2023-06-19T00:50:32;98688.47;;;19.87;100.00
30554;BME280;17335;50.720;7.452;2023-06-19T00:53:00;98685.38;;;19.83;100.00
30554;BME280;17335;50.720;7.452;2023-06-19T00:55:30;98690.44;;;19.73;100.00
30554;BME280;17335;50.720;7.452;2023-06-19T00:58:00;98683.34;;;19.72;100.00
30554;BME280;17335;50.720;7.452;2023-06-19T01:00:26;98685.47;;;19.70;100.00
30554;BME280;17335;50.720;7.452;2023-06-19T01:02:53;98687.31;;;19.70;100.00
30554;BME280;17335;50.720;7.452;2023-06-19T01:05:20;98685.03;;;19.66;100.00
30554;BME280;17335;50.720;7.452;2023-06-19T01:10:46;98690.91;;;19.70;100.00
30554;BME280;17335;50.720;7.452;2023-06-19T01:15:50;98695.09;;;19.66;100.00
30554;BME280;17335;50.720;7.452;2023-06-19T01:18:17;98685.91;;;19.67;100.00
30554;BME280;17335;50.720;7.452;2023-06-19T01:20:44;98692.16;;;19.67;100.00
30554;BME280;17335;50.720;7.452;2023-06-19T01:23:11;98697.78;;;19.73;100.00
30554;BME280;17335;50.720;7.452;2023-06-19T01:25:38;98696.09;;;19.78;100.00
30554;BME280;17335;50.720;7.452;2023-06-19T01:28:07;98689.38;;;19.81;100.00
30554;BME280;17335;50.720;7.452;2023-06-19T01:30:41;98687.22;;;19.90;100.00
30554;BME280;17335;50.720;7.452;2023-06-19T01:33:16;98686.09;;;19.97;100.00
30554;BME280;17335;50.720;7.452;2023-06-19T01:35:46;98681.50;;;19.98;100.00
30554;BME280;17335;50.720;7.452;2023-06-19T01:38:14;98685.28;;;19.97;100.00
30554;BME280;17335;50.720;7.452;2023-06-19T01:40:42;98679.81;;;19.97;100.00
30554;BME280;17335;50.720;7.452;2023-06-19T01:43:10;98680.81;;;20.02;100.00
30554;BME280;17335;50.720;7.452;2023-06-19T01:45:37;98694.91;;;19.99;100.00
30554;BME280;17335;50.720;7.452;2023-06-19T01:48:04;98705.84;;;19.93;100.00
30554;BME280;17335;50.720;7.452;2023-06-19T01:50:30;98707.94;;;19.91;100.00
30554;BME280;17335;50.720;7.452;2023-06-19T01:52:57;98713.84;;;19.88;100.00
30554;BME280;17335;50.720;7.452;2023-06-19T01:55:23;98696.88;;;19.85;100.00
30554;BME280;17335;50.720;7.452;2023-06-19T01:57:50;98698.16;;;19.83;100.00
30554;BME280;17335;50.720;7.452;2023-06-19T02:00:17;98696.31;;;19.77;100.00
30554;BME280;17335;50.720;7.452;2023-06-19T02:02:44;98692.56;;;19.71;100.00
30554;BME280;17335;50.720;7.452;2023-06-19T02:05:11;98693.66;;;19.63;100.00
30554;BME280;17335;50.720;7.452;2023-06-19T02:07:37;98684.03;;;19.61;100.00
30554;BME280;17335;50.720;7.452;2023-06-19T02:10:05;98704.41;;;19.52;100.00
30554;BME280;17335;50.720;7.452;2023-06-19T02:12:32;98706.16;;;19.39;100.00
30554;BME280;17335;50.720;7.452;2023-06-19T02:14:58;98707.25;;;19.32;100.00
30554;BME280;17335;50.720;7.452;2023-06-19T02:17:25;98716.22;;;19.32;100.00
30554;BME280;17335;50.720;7.452;2023-06-19T02:19:52;98710.97;;;19.37;100.00
30554;BME280;17335;50.720;7.452;2023-06-19T02:22:19;98719.59;;;19.34;100.00
30554;BME280;17335;50.720;7.452;2023-06-19T02:24:45;98719.59;;;19.34;100.00
30554;BME280;17335;50.720;7.452;2023-06-19T02:27:12;98710.31;;;19.42;100.00
30554;BME280;17335;50.720;7.452;2023-06-19T02:29:38;98721.97;;;19.56;100.00
30554;BME280;17335;50.720;7.452;2023-06-19T02:32:05;98723.69;;;19.50;100.00
30554;BME280;17335;50.720;7.452;2023-06-19T02:34:31;98733.09;;;19.47;100.00
30554;BME280;17335;50.720;7.452;2023-06-19T02:36:59;98729.09;;;19.57;100.00
30554;BME280;17335;50.720;7.452;2023-06-19T02:39:25;98732.84;;;19.56;100.00
30554;BME280;17335;50.720;7.452;2023-06-19T02:41:52;98733.22;;;19.66;100.00
30554;BME280;17335;50.720;7.452;2023-06-19T02:44:18;98738.06;;;19.64;100.00
30554;BME280;17335;50.720;7.452;2023-06-19T02:46:45;98743.91;;;19.67;100.00
30554;BME280;17335;50.720;7.452;2023-06-19T02:49:12;98746.19;;;19.71;100.00
30554;BME280;17335;50.720;7.452;2023-06-19T02:51:38;98754.94;;;19.86;100.00
30554;BME280;17335;50.720;7.452;2023-06-19T02:54:07;98754.41;;;19.96;100.00
30554;BME280;17335;50.720;7.452;2023-06-19T02:56:34;98762.50;;;20.09;100.00
30554;BME280;17335;50.720;7.452;2023-06-19T02:59:01;98764.19;;;20.10;100.00
30554;BME280;17335;50.720;7.452;2023-06-19T03:01:27;98762.84;;;20.19;100.00
30554;BME280;17335;50.720;7.452;2023-06-19T03:03:54;98769.53;;;20.23;100.00
30554;BME280;17335;50.720;7.452;2023-06-19T03:06:21;98766.91;;;20.10;100.00
30554;BME280;17335;50.720;7.452;2023-06-19T03:08:47;98768.91;;;20.21;100.00
30554;BME280;17335;50.720;7.452;2023-06-19T03:11:14;98771.03;;;20.19;100.00
30554;BME280;17335;50.720;7.452;2023-06-19T03:13:50;98763.91;;;20.18;100.00
30554;BME280;17335;50.720;7.452;2023-06-19T03:16:17;98765.53;;;20.26;100.00
30554;BME280;17335;50.720;7.452;2023-06-19T03:18:44;98777.56;;;20.18;100.00
30554;BME280;17335;50.720;7.452;2023-06-19T03:21:14;98779.38;;;20.24;100.00
30554;BME280;17335;50.720;7.452;2023-06-19T03:23:41;98786.94;;;20.22;100.00
30554;BME280;17335;50.720;7.452;2023-06-19T03:26:09;98785.44;;;20.27;100.00
30554;BME280;17335;50.720;7.452;2023-06-19T03:28:37;98781.53;;;20.16;100.00
30554;BME280;17335;50.720;7.452;2023-06-19T03:31:03;98794.78;;;20.12;100.00
30554;BME280;17335;50.720;7.452;2023-06-19T03:33:30;98797.50;;;20.12;100.00
30554;BME280;17335;50.720;7.452;2023-06-19T03:35:56;98802.94;;;20.12;100.00
30554;BME280;17335;50.720;7.452;2023-06-19T03:38:23;98788.66;;;20.17;100.00
30554;BME280;17335;50.720;7.452;2023-06-19T03:40:49;98799.19;;;20.13;100.00
30554;BME280;17335;50.720;7.452;2023-06-19T03:43:16;98806.06;;;20.16;100.00
30554;BME280;17335;50.720;7.452;2023-06-19T03:45:42;98800.66;;;20.09;100.00
30554;BME280;17335;50.720;7.452;2023-06-19T03:48:08;98803.88;;;19.99;100.00
30554;BME280;17335;50.720;7.452;2023-06-19T03:50:35;98810.81;;;19.95;100.00
30554;BME280;17335;50.720;7.452;2023-06-19T03:53:02;98816.28;;;19.89;100.00
30554;BME280;17335;50.720;7.452;2023-06-19T03:55:29;98823.44;;;19.83;100.00
30554;BME280;17335;50.720;7.452;2023-06-19T03:57:56;98838.78;;;19.77;100.00
30554;BME280;17335;50.720;7.452;2023-06-19T04:00:22;98830.81;;;19.69;100.00
30554;BME280;17335;50.720;7.452;2023-06-19T04:02:49;98837.56;;;19.60;100.00
30554;BME280;17335;50.720;7.452;2023-06-19T04:05:17;98840.09;;;19.55;100.00
30554;BME280;17335;50.720;7.452;2023-06-19T04:07:44;98846.00;;;19.45;100.00
30554;BME280;17335;50.720;7.452;2023-06-19T04:10:10;98852.69;;;19.42;100.00
30554;BME280;17335;50.720;7.452;2023-06-19T04:12:38;98860.03;;;19.42;100.00
30554;BME280;17335;50.720;7.452;2023-06-19T04:15:07;98858.38;;;19.34;100.00
30554;BME280;17335;50.720;7.452;2023-06-19T04:17:34;98860.69;;;19.30;100.00
30554;BME280;17335;50.720;7.452;2023-06-19T04:20:04;98865.91;;;19.32;100.00
30554;BME280;17335;50.720;7.452;2023-06-19T04:22:38;98871.13;;;19.40;100.00
30554;BME280;17335;50.720;7.452;2023-06-19T04:25:09;98880.56;;;19.38;100.00
30554;BME280;17335;50.720;7.452;2023-06-19T04:27:37;98880.38;;;19.33;100.00
30554;BME280;17335;50.720;7.452;2023-06-19T04:30:04;98886.41;;;19.41;100.00
30554;BME280;17335;50.720;7.452;2023-06-19T04:32:33;98890.38;;;19.45;100.00
30554;BME280;17335;50.720;7.452;2023-06-19T04:35:01;98885.13;;;19.44;100.00
30554;BME280;17335;50.720;7.452;2023-06-19T04:37:28;98890.53;;;19.64;100.00
30554;BME280;17335;50.720;7.452;2023-06-19T04:39:54;98883.19;;;19.64;100.00
30554;BME280;17335;50.720;7.452;2023-06-19T04:42:22;98878.13;;;19.81;100.00
30554;BME280;17335;50.720;7.452;2023-06-19T04:44:49;98894.63;;;19.93;100.00
30554;BME280;17335;50.720;7.452;2023-06-19T04:47:18;98895.84;;;20.04;100.00
30554;BME280;17335;50.720;7.452;2023-06-19T04:49:45;98900.19;;;20.18;100.00
30554;BME280;17335;50.720;7.452;2023-06-19T04:52:11;98899.38;;;20.75;100.00
30554;BME280;17335;50.720;7.452;2023-06-19T04:54:38;98898.19;;;21.95;100.00
30554;BME280;17335;50.720;7.452;2023-06-19T04:57:05;98887.09;;;22.81;100.00
30554;BME280;17335;50.720;7.452;2023-06-19T04:59:32;98892.81;;;23.03;100.00
30554;BME280;17335;50.720;7.452;2023-06-19T05:01:59;98890.19;;;22.73;100.00
30554;BME280;17335;50.720;7.452;2023-06-19T05:04:26;98886.16;;;22.33;100.00
30554;BME280;17335;50.720;7.452;2023-06-19T05:06:53;98891.00;;;22.31;100.00
30554;BME280;17335;50.720;7.452;2023-06-19T05:09:19;98896.09;;;22.58;100.00
30554;BME280;17335;50.720;7.452;2023-06-19T05:11:46;98913.88;;;22.37;100.00
30554;BME280;17335;50.720;7.452;2023-06-19T05:14:12;98910.91;;;22.20;100.00
30554;BME280;17335;50.720;7.452;2023-06-19T05:16:41;98917.34;;;21.77;100.00
30554;BME280;17335;50.720;7.452;2023-06-19T05:19:08;98923.66;;;21.33;100.00
30554;BME280;17335;50.720;7.452;2023-06-19T05:21:34;98929.97;;;21.09;100.00
30554;BME280;17335;50.720;7.452;2023-06-19T05:24:01;98929.31;;;20.88;100.00
30554;BME280;17335;50.720;7.452;2023-06-19T05:26:28;98931.25;;;20.81;100.00
30554;BME280;17335;50.720;7.452;2023-06-19T05:28:54;98934.69;;;20.70;100.00
30554;BME280;17335;50.720;7.452;2023-06-19T05:31:21;98935.13;;;20.67;100.00
30554;BME280;17335;50.720;7.452;2023-06-19T05:33:47;98939.13;;;20.64;100.00
30554;BME280;17335;50.720;7.452;2023-06-19T05:36:13;98937.66;;;20.61;100.00
30554;BME280;17335;50.720;7.452;2023-06-19T05:38:40;98943.16;;;20.55;100.00
30554;BME280;17335;50.720;7.452;2023-06-19T05:41:08;98943.97;;;20.55;100.00
30554;BME280;17335;50.720;7.452;2023-06-19T05:43:34;98946.97;;;20.47;100.00
30554;BME280;17335;50.720;7.452;2023-06-19T05:46:01;98948.22;;;20.51;100.00
30554;BME280;17335;50.720;7.452;2023-06-19T05:48:29;98949.88;;;20.52;100.00
30554;BME280;17335;50.720;7.452;2023-06-19T05:50:56;98947.53;;;20.56;100.00
30554;BME280;17335;50.720;7.452;2023-06-19T05:53:22;98952.53;;;20.66;100.00
30554;BME280;17335;50.720;7.452;2023-06-19T05:55:49;98950.59;;;20.73;100.00
30554;BME280;17335;50.720;7.452;2023-06-19T05:58:16;98960.34;;;20.62;100.00
30554;BME280;17335;50.720;7.452;2023-06-19T06:00:46;98961.16;;;20.63;100.00
30554;BME280;17335;50.720;7.452;2023-06-19T06:03:13;98968.88;;;20.72;100.00
30554;BME280;17335;50.720;7.452;2023-06-19T06:05:41;98970.13;;;20.70;100.00
30554;BME280;17335;50.720;7.452;2023-06-19T06:08:08;98967.28;;;20.90;100.00
30554;BME280;17335;50.720;7.452;2023-06-19T06:10:34;98969.78;;;20.91;100.00
30554;BME280;17335;50.720;7.452;2023-06-19T06:13:01;98973.91;;;21.01;100.00
30554;BME280;17335;50.720;7.452;2023-06-19T06:15:28;98971.19;;;21.26;100.00
30554;BME280;17335;50.720;7.452;2023-06-19T06:17:55;98967.53;;;21.39;100.00
30554;BME280;17335;50.720;7.452;2023-06-19T06:20:22;98954.34;;;21.54;100.00
30554;BME280;17335;50.720;7.452;2023-06-19T06:22:49;98961.19;;;21.63;100.00
30554;BME280;17335;50.720;7.452;2023-06-19T06:25:15;98954.22;;;21.86;100.00
30554;BME280;17335;50.720;7.452;2023-06-19T06:27:42;98957.47;;;22.13;100.00
30554;BME280;17335;50.720;7.452;2023-06-19T06:30:09;98950.22;;;22.56;100.00
30554;BME280;17335;50.720;7.452;2023-06-19T06:32:38;98941.59;;;22.94;100.00
30554;BME280;17335;50.720;7.452;2023-06-19T06:35:04;98936.44;;;23.28;100.00
30554;BME280;17335;50.720;7.452;2023-06-19T06:37:31;98930.47;;;23.43;100.00
30554;BME280;17335;50.720;7.452;2023-06-19T06:39:57;98931.03;;;23.69;100.00
30554;BME280;17335;50.720;7.452;2023-06-19T06:42:24;98931.41;;;23.84;100.00
30554;BME280;17335;50.720;7.452;2023-06-19T06:44:51;98932.25;;;23.85;100.00
30554;BME280;17335;50.720;7.452;2023-06-19T06:47:17;98939.72;;;24.01;100.00
30554;BME280;17335;50.720;7.452;2023-06-19T06:49:43;98947.34;;;23.99;100.00
30554;BME280;17335;50.720;7.452;2023-06-19T06:52:10;98944.97;;;23.79;100.00
30554;BME280;17335;50.720;7.452;2023-06-19T06:54:37;98948.56;;;23.80;100.00
30554;BME280;17335;50.720;7.452;2023-06-19T06:57:03;98954.06;;;23.44;100.00
30554;BME280;17335;50.720;7.452;2023-06-19T06:59:31;98962.63;;;23.12;100.00
30554;BME280;17335;50.720;7.452;2023-06-19T07:01:58;98955.41;;;22.88;100.00
30554;BME280;17335;50.720;7.452;2023-06-19T07:04:24;98957.75;;;22.72;100.00
30554;BME280;17335;50.720;7.452;2023-06-19T07:06:51;98956.72;;;22.55;100.00
30554;BME280;17335;50.720;7.452;2023-06-19T07:09:18;98967.84;;;22.41;100.00
30554;BME280;17335;50.720;7.452;2023-06-19T07:11:44;98973.03;;;22.31;100.00
30554;BME280;17335;50.720;7.452;2023-06-19T07:14:11;98979.13;;;22.33;100.00
30554;BME280;17335;50.720;7.452;2023-06-19T07:16:37;98973.81;;;22.20;100.00
30554;BME280;17335;50.720;7.452;2023-06-19T07:19:04;98973.56;;;22.40;100.00
30554;BME280;17335;50.720;7.452;2023-06-19T07:21:30;98973.69;;;22.75;100.00
30554;BME280;17335;50.720;7.452;2023-06-19T07:23:57;98978.38;;;22.87;100.00
30554;BME280;17335;50.720;7.452;2023-06-19T07:26:24;98979.06;;;22.82;100.00
30554;BME280;17335;50.720;7.452;2023-06-19T07:28:51;98988.34;;;22.81;100.00
30554;BME280;17335;50.720;7.452;2023-06-19T07:31:17;98983.94;;;22.80;100.00
30554;BME280;17335;50.720;7.452;2023-06-19T07:33:44;98989.81;;;22.95;100.00
30554;BME280;17335;50.720;7.452;2023-06-19T07:36:10;98979.66;;;23.14;100.00
30554;BME280;17335;50.720;7.452;2023-06-19T07:38:41;98985.50;;;23.30;100.00
30554;BME280;17335;50.720;7.452;2023-06-19T07:41:08;98984.66;;;23.53;100.00
30554;BME280;17335;50.720;7.452;2023-06-19T07:43:36;98968.69;;;23.50;100.00
30554;BME280;17335;50.720;7.452;2023-06-19T07:46:03;98970.25;;;23.57;100.00
30554;BME280;17335;50.720;7.452;2023-06-19T07:48:30;98971.09;;;23.82;100.00
30554;BME280;17335;50.720;7.452;2023-06-19T07:50:56;98972.78;;;24.23;100.00
30554;BME280;17335;50.720;7.452;2023-06-19T07:53:23;98974.53;;;24.41;100.00
30554;BME280;17335;50.720;7.452;2023-06-19T07:55:49;98975.09;;;24.55;100.00
30554;BME280;17335;50.720;7.452;2023-06-19T07:58:16;98979.25;;;24.58;100.00
30554;BME280;17335;50.720;7.452;2023-06-19T08:00:42;98983.44;;;24.60;100.00
30554;BME280;17335;50.720;7.452;2023-06-19T08:03:09;98983.91;;;24.17;100.00
30554;BME280;17335;50.720;7.452;2023-06-19T08:05:35;98979.06;;;24.07;100.00
30554;BME280;17335;50.720;7.452;2023-06-19T08:08:02;98974.91;;;23.92;100.00
30554;BME280;17335;50.720;7.452;2023-06-19T08:10:28;98978.34;;;24.00;100.00
30554;BME280;17335;50.720;7.452;2023-06-19T08:12:55;98977.38;;;24.06;100.00
30554;BME280;17335;50.720;7.452;2023-06-19T08:15:22;98973.94;;;24.39;100.00
30554;BME280;17335;50.720;7.452;2023-06-19T08:17:48;98980.41;;;24.62;100.00
30554;BME280;17335;50.720;7.452;2023-06-19T08:20:15;98992.25;;;24.50;100.00
30554;BME280;17335;50.720;7.452;2023-06-19T08:22:42;98987.19;;;24.30;100.00
30554;BME280;17335;50.720;7.452;2023-06-19T08:25:08;98993.06;;;24.22;100.00
30554;BME280;17335;50.720;7.452;2023-06-19T08:27:35;98993.44;;;24.26;100.00
30554;BME280;17335;50.720;7.452;2023-06-19T08:30:01;99003.88;;;24.41;100.00
30554;BME280;17335;50.720;7.452;2023-06-19T08:32:28;98994.38;;;24.31;100.00
30554;BME280;17335;50.720;7.452;2023-06-19T08:34:55;98996.84;;;24.45;100.00
30554;BME280;17335;50.720;7.452;2023-06-19T08:37:21;98995.97;;;24.56;100.00
30554;BME280;17335;50.720;7.452;2023-06-19T08:39:48;98981.75;;;24.88;100.00
30554;BME280;17335;50.720;7.452;2023-06-19T08:42:14;98992.63;;;24.83;100.00
30554;BME280;17335;50.720;7.452;2023-06-19T08:44:41;98994.66;;;24.59;100.00
30554;BME280;17335;50.720;7.452;2023-06-19T08:47:08;98997.72;;;24.22;100.00
30554;BME280;17335;50.720;7.452;2023-06-19T08:49:36;98992.75;;;24.07;100.00
30554;BME280;17335;50.720;7.452;2023-06-19T08:52:02;98990.22;;;24.17;100.00
30554;BME280;17335;50.720;7.452;2023-06-19T08:54:29;98991.06;;;24.58;100.00
30554;BME280;17335;50.720;7.452;2023-06-19T08:57:00;99000.88;;;24.54;100.00
30554;BME280;17335;50.720;7.452;2023-06-19T08:59:27;98999.25;;;24.70;100.00
30554;BME280;17335;50.720;7.452;2023-06-19T09:01:54;98990.00;;;25.22;100.00
30554;BME280;17335;50.720;7.452;2023-06-19T09:04:24;98993.25;;;25.53;100.00
30554;BME280;17335;50.720;7.452;2023-06-19T09:06:53;98995.66;;;25.66;100.00
30554;BME280;17335;50.720;7.452;2023-06-19T09:09:22;98987.50;;;25.71;100.00
30554;BME280;17335;50.720;7.452;2023-06-19T09:14:37;98988.28;;;26.06;100.00
30554;BME280;17335;50.720;7.452;2023-06-19T09:17:05;99003.44;;;25.91;100.00
30554;BME280;17335;50.720;7.452;2023-06-19T09:19:36;99004.47;;;25.68;100.00
30554;BME280;17335;50.720;7.452;2023-06-19T09:22:05;99002.50;;;25.63;100.00
30554;BME280;17335;50.720;7.452;2023-06-19T09:24:37;98997.19;;;25.57;100.00
30554;BME280;17335;50.720;7.452;2023-06-19T09:27:11;99013.06;;;25.72;100.00
30554;BME280;17335;50.720;7.452;2023-06-19T09:29:41;99006.91;;;25.64;100.00
30554;BME280;17335;50.720;7.452;2023-06-19T09:32:18;99010.59;;;25.70;100.00
30554;BME280;17335;50.720;7.452;2023-06-19T09:34:45;99012.00;;;25.39;100.00
30554;BME280;17335;50.720;7.452;2023-06-19T09:37:12;99015.69;;;25.44;100.00
30554;BME280;17335;50.720;7.452;2023-06-19T09:39:40;99009.97;;;25.68;100.00
30554;BME280;17335;50.720;7.452;2023-06-19T09:42:08;99010.22;;;25.67;100.00
30554;BME280;17335;50.720;7.452;2023-06-19T09:44:42;99012.41;;;25.48;100.00
30554;BME280;17335;50.720;7.452;2023-06-19T09:47:18;99005.31;;;25.86;100.00
30554;BME280;17335;50.720;7.452;2023-06-19T09:49:53;99002.53;;;26.02;100.00
30554;BME280;17335;50.720;7.452;2023-06-19T09:52:22;99007.91;;;26.36;100.00
30554;BME280;17335;50.720;7.452;2023-06-19T09:54:50;98996.38;;;26.62;100.00
30554;BME280;17335;50.720;7.452;2023-06-19T09:57:18;99001.59;;;26.85;95.85
30554;BME280;17335;50.720;7.452;2023-06-19T09:59:54;99003.56;;;26.90;89.69
30554;BME280;17335;50.720;7.452;2023-06-19T10:02:27;99008.47;;;26.83;85.92
30554;BME280;17335;50.720;7.452;2023-06-19T10:04:55;99006.22;;;27.07;94.61
30554;BME280;17335;50.720;7.452;2023-06-19T10:07:25;99001.97;;;27.26;84.88
30554;BME280;17335;50.720;7.452;2023-06-19T10:15:15;99013.69;;;27.81;77.95
30554;BME280;17335;50.720;7.452;2023-06-19T10:17:53;99016.97;;;27.73;84.95
30554;BME280;17335;50.720;7.452;2023-06-19T10:20:25;99014.25;;;27.78;83.87
30554;BME280;17335;50.720;7.452;2023-06-19T10:25:34;99006.09;;;27.94;72.08
30554;BME280;17335;50.720;7.452;2023-06-19T10:28:02;99006.13;;;27.99;70.90
30554;BME280;17335;50.720;7.452;2023-06-19T10:30:32;98999.25;;;28.06;79.16
30554;BME280;17335;50.720;7.452;2023-06-19T10:33:00;99001.69;;;27.98;76.01
30554;BME280;17335;50.720;7.452;2023-06-19T10:35:40;98999.34;;;28.27;69.53
30554;BME280;17335;50.720;7.452;2023-06-19T10:38:07;98998.47;;;28.16;71.33
30554;BME280;17335;50.720;7.452;2023-06-19T10:40:37;98989.31;;;28.11;70.42
30554;BME280;17335;50.720;7.452;2023-06-19T10:43:04;98994.63;;;27.75;68.97
30554;BME280;17335;50.720;7.452;2023-06-19T10:45:31;98993.03;;;27.84;79.60
30554;BME280;17335;50.720;7.452;2023-06-19T10:48:03;98992.75;;;27.80;72.79
30554;BME280;17335;50.720;7.452;2023-06-19T10:50:34;98986.19;;;27.92;78.15
30554;BME280;17335;50.720;7.452;2023-06-19T10:53:06;98992.06;;;28.05;72.90
30554;BME280;17335;50.720;7.452;2023-06-19T10:55:33;98981.34;;;28.19;72.88
30554;BME280;17335;50.720;7.452;2023-06-19T10:58:02;98980.56;;;28.24;77.99
30554;BME280;17335;50.720;7.452;2023-06-19T11:00:30;98982.31;;;28.51;72.80
30554;BME280;17335;50.720;7.452;2023-06-19T11:02:58;98980.75;;;28.91;71.65
30554;BME280;17335;50.720;7.452;2023-06-19T11:05:27;98974.72;;;29.14;65.52
30554;BME280;17335;50.720;7.452;2023-06-19T11:07:55;98965.56;;;29.09;65.68
30554;BME280;17335;50.720;7.452;2023-06-19T11:10:28;98966.41;;;29.04;60.64
30554;BME280;17335;50.720;7.452;2023-06-19T11:12:57;98961.16;;;29.08;66.57
30554;BME280;17335;50.720;7.452;2023-06-19T11:15:31;98954.84;;;29.28;63.62
30554;BME280;17335;50.720;7.452;2023-06-19T11:17:59;98971.41;;;29.02;62.35
30554;BME280;17335;50.720;7.452;2023-06-19T11:20:26;98964.69;;;28.67;64.33
30554;BME280;17335;50.720;7.452;2023-06-19T11:23:00;98970.69;;;28.38;63.48
30554;BME280;17335;50.720;7.452;2023-06-19T11:25:37;98965.16;;;28.33;66.88
30554;BME280;17335;50.720;7.452;2023-06-19T11:28:14;98954.47;;;28.57;69.68
30554;BME280;17335;50.720;7.452;2023-06-19T11:30:41;98947.03;;;28.63;64.86
30554;BME280;17335;50.720;7.452;2023-06-19T11:33:20;98947.03;;;28.58;67.28
30554;BME280;17335;50.720;7.452;2023-06-19T11:35:51;98942.84;;;28.55;61.66
30554;BME280;17335;50.720;7.452;2023-06-19T11:38:19;98941.00;;;28.87;63.73
30554;BME280;17335;50.720;7.452;2023-06-19T11:40:46;98943.47;;;28.73;62.89
30554;BME280;17335;50.720;7.452;2023-06-19T11:43:23;98948.97;;;29.09;61.22
30554;BME280;17335;50.720;7.452;2023-06-19T11:45:50;98946.19;;;28.57;61.21
30554;BME280;17335;50.720;7.452;2023-06-19T11:48:25;98944.19;;;28.42;63.74
30554;BME280;17335;50.720;7.452;2023-06-19T11:50:53;98953.13;;;28.75;66.26
30554;BME280;17335;50.720;7.452;2023-06-19T11:53:20;98949.59;;;29.26;62.36
30554;BME280;17335;50.720;7.452;2023-06-19T11:55:48;98949.59;;;29.26;60.53
30554;BME280;17335;50.720;7.452;2023-06-19T11:58:14;98947.66;;;29.16;59.59
30554;BME280;17335;50.720;7.452;2023-06-19T12:00:42;98950.66;;;29.10;61.11
30554;BME280;17335;50.720;7.452;2023-06-19T12:03:09;98949.28;;;29.38;63.29
30554;BME280;17335;50.720;7.452;2023-06-19T12:05:37;98938.50;;;29.52;60.79
30554;BME280;17335;50.720;7.452;2023-06-19T12:08:04;98934.06;;;29.41;56.35
30554;BME280;17335;50.720;7.452;2023-06-19T12:10:32;98939.88;;;29.44;59.60
30554;BME280;17335;50.720;7.452;2023-06-19T12:12:59;98946.47;;;29.53;61.81
30554;BME280;17335;50.720;7.452;2023-06-19T12:15:25;98951.47;;;29.41;63.67
30554;BME280;17335;50.720;7.452;2023-06-19T12:17:52;98941.81;;;29.44;63.82
30554;BME280;17335;50.720;7.452;2023-06-19T12:20:19;98939.91;;;29.29;59.97
30554;BME280;17335;50.720;7.452;2023-06-19T12:22:45;98942.38;;;29.25;62.18
30554;BME280;17335;50.720;7.452;2023-06-19T12:25:12;98946.22;;;29.40;64.31
30554;BME280;17335;50.720;7.452;2023-06-19T12:27:38;98940.16;;;29.38;58.86
30554;BME280;17335;50.720;7.452;2023-06-19T12:30:05;98935.75;;;29.11;60.68
30554;BME280;17335;50.720;7.452;2023-06-19T12:32:32;98947.34;;;29.08;62.88
30554;BME280;17335;50.720;7.452;2023-06-19T12:34:59;98949.84;;;29.14;60.32
30554;BME280;17335;50.720;7.452;2023-06-19T12:37:25;98940.69;;;29.04;56.92
30554;BME280;17335;50.720;7.452;2023-06-19T12:39:52;98936.56;;;29.32;59.04
30554;BME280;17335;50.720;7.452;2023-06-19T12:42:18;98944.88;;;29.37;59.07
30554;BME280;17335;50.720;7.452;2023-06-19T12:44:45;98944.03;;;28.85;59.29
30554;BME280;17335;50.720;7.452;2023-06-19T12:47:13;98941.78;;;28.61;60.73
30554;BME280;17335;50.720;7.452;2023-06-19T12:49:41;98934.88;;;28.79;59.92
30554;BME280;17335;50.720;7.452;2023-06-19T12:52:07;98934.50;;;28.35;59.91
30554;BME280;17335;50.720;7.452;2023-06-19T12:54:34;98930.50;;;27.95;64.82
30554;BME280;17335;50.720;7.452;2023-06-19T12:57:01;98928.13;;;28.24;64.50
30554;BME280;17335;50.720;7.452;2023-06-19T12:59:28;98933.97;;;28.48;63.92
30554;BME280;17335;50.720;7.452;2023-06-19T13:01:55;98923.56;;;28.96;62.02
30554;BME280;17335;50.720;7.452;2023-06-19T13:04:22;98928.00;;;29.33;58.59
30554;BME280;17335;50.720;7.452;2023-06-19T13:06:48;98921.06;;;29.46;58.47
30554;BME280;17335;50.720;7.452;2023-06-19T13:09:15;98926.03;;;29.44;55.98
30554;BME280;17335;50.720;7.452;2023-06-19T13:11:42;98918.03;;;29.02;59.59